createdAt,value
2023-05-21T00:03:55.665Z,13.08
2023-05-21T00:13:59.008Z,13.06
2023-05-21T00:24:02.309Z,13.14
2023-05-21T00:34:05.610Z,13.07
2023-05-21T00:44:09.455Z,12.84
2023-05-21T00:54:13.007Z,12.83
2023-05-21T01:04:16.819Z,12.87
2023-05-21T01:14:21.373Z,12.78
2023-05-21T01:24:24.545Z,12.65
2023-05-21T01:34:40.928Z,12.37
2023-05-21T01:44:45.460Z,12.10
2023-05-21T01:54:50.131Z,11.78
2023-05-21T02:04:53.180Z,11.60
2023-05-21T02:14:56.569Z,11.48
2023-05-21T02:25:00.487Z,11.33
2023-05-21T02:35:04.906Z,11.21
2023-05-21T02:45:09.498Z,11.27
2023-05-21T02:55:13.316Z,11.21
2023-05-21T03:05:16.753Z,11.06
2023-05-21T03:15:24.307Z,11.04
2023-05-21T03:25:27.504Z,11.15
2023-05-21T03:35:31.446Z,11.06
2023-05-21T03:45:35.398Z,10.97
2023-05-21T03:55:57.581Z,11.17
2023-05-21T04:06:02.117Z,11.64
2023-05-21T04:16:05.502Z,12.12
2023-05-21T04:26:08.990Z,12.47
2023-05-21T04:36:17.376Z,12.85
2023-05-21T04:46:25.576Z,13.18
2023-05-21T04:56:30.157Z,13.63
2023-05-21T05:06:33.463Z,14.11
2023-05-21T05:16:36.808Z,14.74
2023-05-21T05:26:40.208Z,15.97
2023-05-21T05:36:43.414Z,17.46
2023-05-21T05:46:46.837Z,18.34
2023-05-21T05:56:50.700Z,18.52
2023-05-21T06:06:54.585Z,18.58
2023-05-21T06:16:57.702Z,19.30
2023-05-21T06:27:04.293Z,20.94
2023-05-21T06:37:08.212Z,22.36
2023-05-21T06:47:11.445Z,23.38
2023-05-21T06:57:16.628Z,24.52
2023-05-21T07:07:20.416Z,25.17
2023-05-21T07:17:24.867Z,25.88
2023-05-21T07:27:44.733Z,25.76
2023-05-21T07:38:14.698Z,25.50
2023-05-21T07:48:24.587Z,25.61
2023-05-21T07:58:37.899Z,25.20
2023-05-21T08:08:41.979Z,24.84
2023-05-21T08:19:06.057Z,24.52
2023-05-21T08:29:12.659Z,23.59
2023-05-21T08:39:21.168Z,23.18
2023-05-21T08:49:31.142Z,23.00
2023-05-21T08:59:37.122Z,22.96
2023-05-21T09:09:54.355Z,22.89
2023-05-21T09:20:14.644Z,23.15
2023-05-21T09:30:37.114Z,23.44
2023-05-21T09:40:48.026Z,23.51
2023-05-21T09:51:07.339Z,23.41
2023-05-21T10:01:42.152Z,23.40
2023-05-21T10:11:53.050Z,23.51
2023-05-21T10:21:57.468Z,23.55
2023-05-21T10:32:12.419Z,23.69
2023-05-21T10:42:42.975Z,23.70
2023-05-21T10:53:10.646Z,23.84
2023-05-21T11:03:18.113Z,23.73
2023-05-21T11:13:44.736Z,23.80
2023-05-21T11:24:11.053Z,23.74
2023-05-21T11:34:41.307Z,23.80
2023-05-21T11:44:46.775Z,23.96
2023-05-21T11:54:55.727Z,24.05
2023-05-21T12:05:00.795Z,24.08
2023-05-21T12:15:04.629Z,24.21
2023-05-21T12:25:20.294Z,24.26
2023-05-21T12:35:24.535Z,24.11
2023-05-21T12:45:29.563Z,24.12
2023-05-21T12:56:07.363Z,24.06
2023-05-21T13:06:11.655Z,24.04
2023-05-21T13:17:00.558Z,24.10
2023-05-21T13:27:05.068Z,24.09
2023-05-21T13:37:08.488Z,24.04
2023-05-21T13:47:12.558Z,24.00
2023-05-21T13:57:19.633Z,23.87
2023-05-21T14:07:24.322Z,23.74
2023-05-21T14:17:30.798Z,23.68
2023-05-21T14:27:34.154Z,23.66
2023-05-21T14:37:44.265Z,23.65
2023-05-21T14:47:48.021Z,23.58
2023-05-21T14:58:03.914Z,23.60
2023-05-21T15:08:10.425Z,23.52
2023-05-21T15:18:18.882Z,23.38
2023-05-21T15:28:48.038Z,23.17
2023-05-21T15:38:55.061Z,23.01
2023-05-21T15:49:19.936Z,22.82
2023-05-21T15:59:57.889Z,22.64
2023-05-21T16:10:23.153Z,22.45
2023-05-21T16:20:26.414Z,22.36
2023-05-21T16:30:29.589Z,22.08
2023-05-21T16:40:33.073Z,21.85
2023-05-21T16:50:36.270Z,21.67
2023-05-21T17:00:39.869Z,21.37
2023-05-21T17:10:43.148Z,21.08
2023-05-21T17:20:46.611Z,20.78
2023-05-21T17:30:49.984Z,20.37
2023-05-21T17:40:53.505Z,20.05
2023-05-21T17:50:56.662Z,19.64
2023-05-21T18:00:59.969Z,19.26
2023-05-21T18:11:03.250Z,18.88
2023-05-21T18:21:06.623Z,18.43
2023-05-21T18:31:10.074Z,17.82
2023-05-21T18:41:14.263Z,17.10
2023-05-21T18:51:17.551Z,16.40
2023-05-21T19:01:20.701Z,15.83
2023-05-21T19:11:24.076Z,15.32
2023-05-21T19:21:28.572Z,14.74
2023-05-21T19:31:33.591Z,14.25
2023-05-21T19:41:36.993Z,13.83
2023-05-21T19:51:40.247Z,13.43
2023-05-21T20:01:44.282Z,13.05
2023-05-21T20:11:50.685Z,12.75
2023-05-21T20:21:54.213Z,12.35
2023-05-21T20:31:57.494Z,11.88
2023-05-21T20:42:01.234Z,11.46
2023-05-21T20:52:04.848Z,11.14
2023-05-21T21:02:12.855Z,11.00
2023-05-21T21:12:26.017Z,10.85
2023-05-21T21:22:31.392Z,10.55
2023-05-21T21:32:34.653Z,10.29
2023-05-21T21:42:38.056Z,10.12
2023-05-21T21:52:41.481Z,10.17
2023-05-21T22:02:46.764Z,10.09
2023-05-21T22:12:50.846Z,9.98
2023-05-21T22:22:55.379Z,9.84
2023-05-21T22:32:59.145Z,9.59
2023-05-21T22:43:03.327Z,9.37
2023-05-21T22:53:07.091Z,9.14
2023-05-21T23:03:10.294Z,8.98
2023-05-21T23:13:13.477Z,8.76
2023-05-21T23:23:16.668Z,8.57
2023-05-21T23:33:20.217Z,8.42
2023-05-21T23:43:24.222Z,8.35
2023-05-21T23:53:27.245Z,8.22
